createdAt,value
2017-10-25T04:03:01.844Z,13.90
2017-10-25T04:08:30.518Z,13.50
2017-10-25T04:10:58.340Z,11.87
2017-10-25T04:13:26.145Z,13.73
2017-10-25T04:18:47.546Z,11.97
2017-10-25T04:27:06.023Z,11.60
2017-10-25T04:38:40.002Z,7.43
2017-10-25T04:44:12.654Z,11.90
2017-10-25T04:46:44.367Z,10.67
2017-10-25T04:49:12.878Z,11.13
2017-10-25T04:54:15.719Z,11.10
2017-10-25T04:56:43.565Z,13.00
2017-10-25T04:59:14.846Z,14.43
2017-10-25T05:01:42.740Z,11.50
2017-10-25T05:04:26.213Z,14.50
2017-10-25T05:06:54.364Z,14.40
2017-10-25T05:18:10.025Z,16.07
2017-10-25T05:20:57.729Z,16.57
2017-10-25T05:23:26.028Z,18.00
2017-10-25T05:26:04.716Z,13.73
2017-10-25T05:28:32.836Z,17.07
2017-10-25T05:31:01.081Z,16.10
2017-10-25T05:39:12.732Z,16.87
2017-10-25T05:41:40.577Z,16.73
2017-10-25T05:44:12.876Z,14.50
2017-10-25T05:46:40.933Z,17.47
2017-10-25T05:49:08.855Z,15.97
2017-10-25T05:51:36.785Z,18.03
2017-10-25T05:54:04.998Z,17.20
2017-10-25T05:56:33.181Z,16.20
2017-10-25T05:59:01.490Z,18.67
2017-10-25T06:01:29.492Z,17.70
2017-10-25T06:04:05.321Z,18.00
2017-10-25T06:06:34.938Z,16.00
2017-10-25T06:09:03.621Z,19.60
2017-10-25T06:14:12.961Z,18.30
2017-10-25T06:16:40.797Z,20.90
2017-10-25T06:19:08.638Z,18.60
2017-10-25T06:21:36.825Z,19.10
2017-10-25T06:27:15.781Z,18.17
2017-10-25T06:29:43.614Z,18.30
2017-10-25T06:32:13.527Z,18.17
2017-10-25T06:34:41.361Z,16.60
2017-10-25T06:37:11.778Z,16.00
2017-10-25T06:45:31.901Z,17.67
2017-10-25T06:47:59.749Z,19.53
2017-10-25T06:50:27.577Z,19.30
2017-10-25T06:52:56.571Z,19.33
2017-10-25T06:55:30.426Z,18.80
2017-10-25T06:57:58.562Z,14.37
2017-10-25T07:00:26.367Z,20.30
2017-10-25T07:02:54.186Z,19.73
2017-10-25T07:05:21.993Z,18.00
2017-10-25T07:07:49.942Z,17.37
2017-10-25T07:10:17.742Z,16.80
2017-10-25T07:12:45.581Z,16.53
2017-10-25T07:15:13.661Z,16.40
2017-10-25T07:17:41.471Z,15.33
2017-10-25T07:20:11.294Z,15.80
2017-10-25T07:22:39.124Z,13.57
2017-10-25T07:25:06.938Z,16.87
2017-10-25T07:27:34.740Z,16.73
2017-10-25T07:30:02.566Z,18.87
2017-10-25T07:32:30.372Z,20.20
2017-10-25T07:35:04.943Z,18.50
2017-10-25T07:37:32.792Z,15.20
2017-10-25T07:40:00.616Z,17.60
2017-10-25T07:42:28.423Z,21.40
2017-10-25T07:44:56.247Z,20.27
2017-10-25T07:47:24.077Z,19.93
2017-10-25T07:49:51.903Z,21.87
2017-10-25T07:52:19.744Z,18.80
2017-10-25T07:57:47.640Z,20.67
2017-10-25T08:00:15.941Z,21.10
2017-10-25T08:02:43.960Z,20.67
2017-10-25T08:15:56.010Z,19.47
2017-10-25T08:18:23.845Z,20.20
2017-10-25T08:20:51.667Z,18.20
2017-10-25T08:23:19.481Z,17.93
2017-10-25T08:25:47.293Z,20.90
2017-10-25T08:28:15.105Z,18.60
2017-10-25T08:30:42.921Z,20.43
2017-10-25T08:33:10.753Z,19.40
2017-10-25T08:35:38.578Z,17.87
2017-10-25T08:38:06.416Z,19.07
2017-10-25T08:40:34.273Z,18.70
2017-10-25T08:43:02.109Z,15.77
2017-10-25T08:45:29.939Z,17.67
2017-10-25T08:47:57.761Z,16.50
2017-10-25T08:50:25.605Z,12.57
2017-10-25T08:52:53.421Z,10.90
2017-10-25T08:55:21.245Z,9.80
2017-10-25T08:57:49.060Z,10.77
2017-10-25T09:00:16.864Z,11.50
2017-10-25T09:02:44.660Z,11.43
2017-10-25T09:05:12.493Z,10.00
2017-10-25T09:07:40.294Z,10.20
2017-10-25T09:10:08.131Z,10.40
2017-10-25T09:12:35.967Z,9.20
2017-10-25T09:15:03.788Z,7.57
2017-10-25T09:17:31.632Z,5.97
2017-10-25T09:19:59.458Z,10.30
2017-10-25T09:22:27.276Z,7.00
2017-10-25T09:24:55.092Z,5.90
2017-10-25T09:27:22.894Z,7.10
2017-10-25T09:29:50.688Z,6.93
2017-10-25T09:32:18.550Z,5.93
2017-10-25T09:34:46.361Z,6.03
2017-10-25T09:37:14.172Z,5.90
2017-10-25T09:39:41.987Z,4.60
2017-10-25T09:42:09.854Z,5.73
2017-10-25T09:44:37.660Z,5.50
2017-10-25T09:47:05.521Z,4.80
2017-10-25T09:49:33.345Z,6.37
2017-10-25T09:52:01.182Z,5.20
2017-10-25T09:54:29.016Z,5.60
2017-10-25T09:56:56.852Z,5.20
2017-10-25T09:59:24.681Z,5.80
2017-10-25T10:01:52.517Z,5.93
2017-10-25T10:04:20.345Z,5.17
2017-10-25T10:06:48.194Z,6.70
2017-10-25T10:09:16.017Z,6.40
2017-10-25T10:11:43.832Z,6.37
2017-10-25T10:14:11.655Z,5.77
2017-10-25T10:16:39.489Z,7.27
2017-10-25T10:19:07.325Z,6.90
2017-10-25T10:21:35.158Z,5.67
2017-10-25T10:24:02.977Z,6.67
2017-10-25T10:26:30.797Z,7.90
2017-10-25T10:28:58.636Z,5.77
2017-10-25T10:31:26.490Z,6.80
2017-10-25T10:33:54.309Z,5.90
2017-10-25T10:36:22.129Z,5.20
2017-10-25T10:38:49.965Z,5.93
2017-10-25T10:41:17.805Z,6.53
2017-10-25T10:43:45.632Z,6.67
2017-10-25T10:46:13.464Z,5.87
2017-10-25T10:48:41.298Z,5.23
2017-10-25T10:51:09.129Z,5.37
2017-10-25T10:53:36.953Z,6.20
2017-10-25T10:56:04.770Z,4.77
2017-10-25T10:58:32.611Z,4.17
2017-10-25T11:01:00.503Z,5.87
2017-10-25T11:03:28.344Z,4.60
2017-10-25T11:05:56.190Z,5.17
2017-10-25T11:08:24.027Z,6.20
2017-10-25T11:10:51.845Z,5.83
2017-10-25T11:13:19.914Z,5.20
2017-10-25T11:15:47.737Z,5.73
2017-10-25T11:18:15.565Z,5.40
2017-10-25T11:20:43.415Z,5.67
2017-10-25T11:23:11.289Z,7.80
2017-10-25T11:25:39.122Z,8.30
2017-10-25T11:28:06.972Z,7.90
2017-10-25T11:30:34.785Z,7.77
2017-10-25T11:33:02.628Z,7.87
2017-10-25T11:35:30.521Z,7.07
2017-10-25T11:38:01.299Z,8.47
2017-10-25T11:40:29.164Z,9.17
2017-10-25T11:42:56.988Z,8.90
2017-10-25T11:45:24.843Z,8.77
2017-10-25T11:47:52.673Z,9.10
2017-10-25T11:50:20.506Z,9.43
2017-10-25T11:52:48.325Z,8.40
2017-10-25T11:55:16.150Z,11.43
2017-10-25T11:57:43.969Z,11.33
2017-10-25T12:00:11.805Z,10.20
2017-10-25T12:02:39.630Z,11.90
2017-10-25T12:05:07.456Z,14.60
2017-10-25T12:07:35.276Z,9.87
2017-10-25T12:10:03.145Z,12.67
2017-10-25T12:12:30.964Z,11.33
2017-10-25T12:14:58.781Z,11.90
2017-10-25T12:17:26.584Z,10.90
2017-10-25T12:19:54.385Z,9.00
2017-10-25T12:22:22.209Z,10.60
2017-10-25T12:24:50.013Z,10.63
2017-10-25T12:27:17.829Z,10.47
2017-10-25T12:29:45.644Z,10.30
2017-10-25T12:32:13.461Z,8.47
2017-10-25T12:34:41.312Z,9.60
2017-10-25T12:37:09.145Z,8.00
2017-10-25T12:39:36.975Z,9.80
2017-10-25T12:42:04.818Z,9.00
2017-10-25T12:44:32.654Z,7.10
2017-10-25T12:47:00.488Z,9.00
2017-10-25T12:49:28.344Z,8.20
2017-10-25T12:51:56.160Z,7.60
2017-10-25T12:54:23.978Z,7.60
2017-10-25T12:56:51.809Z,8.20
2017-10-25T12:59:19.655Z,8.03
2017-10-25T13:01:47.461Z,7.90
2017-10-25T13:04:15.289Z,8.37
2017-10-25T13:06:43.134Z,7.50
2017-10-25T13:09:10.948Z,8.23
2017-10-25T13:11:40.130Z,8.17
2017-10-25T13:14:16.745Z,7.00
2017-10-25T13:16:47.428Z,7.67
2017-10-25T13:19:15.539Z,8.00
2017-10-25T13:21:43.354Z,9.40
2017-10-25T13:24:11.193Z,6.50
2017-10-25T13:26:39.017Z,6.50
2017-10-25T13:29:06.831Z,6.47
2017-10-25T13:31:34.632Z,6.77
2017-10-25T13:34:02.445Z,5.80
2017-10-25T13:36:30.253Z,5.30
2017-10-25T13:38:58.081Z,4.43
2017-10-25T13:41:25.889Z,4.70
2017-10-25T13:43:53.713Z,3.90
2017-10-25T13:46:21.532Z,4.80
2017-10-25T13:48:49.384Z,3.97
2017-10-25T13:51:17.205Z,3.40
2017-10-25T13:53:45.051Z,3.20
2017-10-25T13:56:12.877Z,3.20
2017-10-25T13:58:40.714Z,2.80
2017-10-25T14:01:08.549Z,3.17
2017-10-25T14:03:36.382Z,2.60
2017-10-25T14:06:04.192Z,5.77
2017-10-25T14:08:32.066Z,19.53
2017-10-25T14:10:59.893Z,4.93
2017-10-25T14:13:27.805Z,6.20
2017-10-25T14:15:55.641Z,5.50
2017-10-25T14:18:23.464Z,2.90
2017-10-25T14:20:51.285Z,2.90
2017-10-25T14:23:19.116Z,2.83
2017-10-25T14:25:46.953Z,2.10
2017-10-25T14:28:20.953Z,2.50
2017-10-25T14:30:48.745Z,2.47
2017-10-25T14:33:16.592Z,2.90
2017-10-25T14:35:44.416Z,1.83
2017-10-25T14:38:12.237Z,2.10
2017-10-25T14:40:40.048Z,1.60
2017-10-25T14:43:07.863Z,1.77
2017-10-25T14:45:35.686Z,2.30
2017-10-25T14:48:03.499Z,1.97
2017-10-25T14:50:31.337Z,1.77
2017-10-25T14:52:59.152Z,2.07
2017-10-25T14:55:26.955Z,2.10
2017-10-25T14:57:54.795Z,1.43
2017-10-25T15:00:22.601Z,1.87
2017-10-25T15:02:50.517Z,2.07
2017-10-25T15:08:12.645Z,2.03
2017-10-25T15:10:40.474Z,2.63
2017-10-25T15:13:08.304Z,2.00
2017-10-25T15:18:39.280Z,2.43
2017-10-25T15:21:09.866Z,4.03
2017-10-25T15:23:44.958Z,1.90
2017-10-25T15:46:45.042Z,4.43
2017-10-25T16:53:16.009Z,4.10
2017-10-25T16:55:44.584Z,3.17
2017-10-25T16:58:12.398Z,3.93
2017-10-25T17:00:40.220Z,4.07
2017-10-25T17:03:08.044Z,3.73
2017-10-25T17:05:35.874Z,3.27
2017-10-25T17:08:03.693Z,4.10
2017-10-25T17:10:31.525Z,4.40
2017-10-25T17:12:59.380Z,3.10
2017-10-25T17:15:27.212Z,5.00
2017-10-25T17:17:55.040Z,4.03
2017-10-25T17:20:22.852Z,2.77
2017-10-25T17:22:50.692Z,3.00
2017-10-25T17:25:18.518Z,2.90
2017-10-25T17:27:46.369Z,3.40
2017-10-25T17:30:14.197Z,3.03
2017-10-25T17:32:42.062Z,2.90
2017-10-25T17:35:09.908Z,3.50
2017-10-25T17:37:37.737Z,5.73
2017-10-25T17:40:05.575Z,3.23
2017-10-25T17:42:33.424Z,2.77
2017-10-25T17:45:01.276Z,2.63
2017-10-25T17:47:29.113Z,2.73
2017-10-25T17:49:56.933Z,3.27
2017-10-25T17:52:24.764Z,2.70
2017-10-25T17:54:52.609Z,2.90
2017-10-25T17:57:20.476Z,3.73
2017-10-25T17:59:48.301Z,3.20
2017-10-25T18:02:16.147Z,3.60
2017-10-25T18:04:44.014Z,4.00
2017-10-25T18:07:11.849Z,5.53
2017-10-25T18:09:39.667Z,4.77
2017-10-25T18:12:07.492Z,3.80
2017-10-25T18:14:35.322Z,4.70
2017-10-25T18:17:03.165Z,3.60
2017-10-25T18:19:31.030Z,5.00
2017-10-25T18:21:58.849Z,6.20
2017-10-25T18:24:26.668Z,2.97
2017-10-25T18:26:54.532Z,4.20
2017-10-25T18:29:22.360Z,4.50
2017-10-25T18:31:50.189Z,3.57
2017-10-25T18:34:18.028Z,3.37
2017-10-25T18:36:45.852Z,3.40
2017-10-25T18:39:13.701Z,3.20
2017-10-25T18:41:41.537Z,5.70
2017-10-25T18:44:09.361Z,2.90
2017-10-25T18:46:37.164Z,3.10
2017-10-25T18:49:04.983Z,3.30
2017-10-25T18:51:32.781Z,2.60
2017-10-25T18:54:00.635Z,3.07
2017-10-25T18:56:28.448Z,4.03
2017-10-25T18:58:56.265Z,3.23
2017-10-25T19:01:24.108Z,4.10
2017-10-25T19:03:51.937Z,3.13
2017-10-25T19:06:19.768Z,4.60
2017-10-25T19:08:47.585Z,4.73
2017-10-25T19:11:15.441Z,4.73
2017-10-25T19:13:43.980Z,3.90
2017-10-25T19:16:12.019Z,3.73
2017-10-25T19:18:40.317Z,2.90
2017-10-25T19:21:08.342Z,3.83
2017-10-25T19:23:36.219Z,2.67
2017-10-25T19:26:04.073Z,3.47
2017-10-25T19:28:31.902Z,2.63
2017-10-25T19:30:59.733Z,3.50
2017-10-25T19:33:27.588Z,3.23
2017-10-25T19:35:55.457Z,2.63
2017-10-25T19:38:23.298Z,3.63
2017-10-25T19:40:51.145Z,3.77
2017-10-25T19:43:19.010Z,3.00
2017-10-25T19:45:46.853Z,2.30
2017-10-25T19:48:14.687Z,2.97
2017-10-25T19:50:42.522Z,3.53
2017-10-25T19:53:10.366Z,3.00
2017-10-25T19:55:38.789Z,3.70
2017-10-25T19:58:06.661Z,6.03
2017-10-25T20:00:34.502Z,4.33
2017-10-25T20:03:02.346Z,3.40
2017-10-25T20:05:30.178Z,4.73
2017-10-25T20:07:58.017Z,4.23
2017-10-25T20:10:25.857Z,3.80
2017-10-25T20:12:53.682Z,3.17
2017-10-25T20:15:21.513Z,3.40
2017-10-25T20:17:49.352Z,4.07
2017-10-25T20:20:17.197Z,3.47
2017-10-25T20:22:45.044Z,4.90
2017-10-25T20:25:12.874Z,4.87
2017-10-25T20:27:40.698Z,3.17
2017-10-25T20:30:08.525Z,3.17
2017-10-25T20:32:36.352Z,4.30
2017-10-25T20:35:04.205Z,3.77
2017-10-25T20:37:32.077Z,4.53
2017-10-25T20:39:59.930Z,3.87
2017-10-25T20:42:27.769Z,3.20
2017-10-25T20:44:55.599Z,5.73
2017-10-25T20:47:23.446Z,4.33
2017-10-25T20:49:51.273Z,3.60
2017-10-25T20:52:19.107Z,3.73
2017-10-25T20:54:46.953Z,4.27
2017-10-25T20:57:14.753Z,4.03
2017-10-25T20:59:42.690Z,4.37
2017-10-25T21:02:10.510Z,2.97
2017-10-25T21:04:38.341Z,4.07
2017-10-25T21:07:06.163Z,5.03
2017-10-25T21:09:33.993Z,3.70
2017-10-25T21:12:01.803Z,3.20
2017-10-25T21:14:29.674Z,3.20
2017-10-25T21:16:57.525Z,3.77
2017-10-25T21:19:25.364Z,3.60
2017-10-25T21:21:53.191Z,3.57
2017-10-25T21:24:21.073Z,3.50
2017-10-25T21:26:48.903Z,3.90
2017-10-25T21:29:16.809Z,3.20
2017-10-25T21:31:44.634Z,3.77
2017-10-25T21:34:12.461Z,3.70
2017-10-25T21:36:40.305Z,3.07
2017-10-25T21:39:08.139Z,3.33
2017-10-25T21:41:36.140Z,4.13
2017-10-25T21:44:03.977Z,5.40
2017-10-25T21:46:31.826Z,3.40
2017-10-25T21:48:59.653Z,4.57
2017-10-25T21:51:27.493Z,4.70
2017-10-25T21:53:55.457Z,3.90
2017-10-25T21:59:39.519Z,4.10
2017-10-25T22:02:07.352Z,3.30
2017-10-25T22:04:35.558Z,6.00
2017-10-25T22:07:03.424Z,3.40
2017-10-25T22:09:36.293Z,4.00
2017-10-25T22:12:04.141Z,4.13
2017-10-25T22:14:33.441Z,3.77
2017-10-25T22:17:01.293Z,4.13
2017-10-25T22:19:29.121Z,2.40
2017-10-25T22:21:56.993Z,5.07
2017-10-25T22:24:24.827Z,4.40
2017-10-25T22:26:52.686Z,4.70
2017-10-25T22:29:20.536Z,4.03
2017-10-25T22:31:48.366Z,4.27
2017-10-25T22:34:16.315Z,3.63
2017-10-25T22:36:44.236Z,4.37
2017-10-25T22:39:12.141Z,5.13
2017-10-25T22:41:39.999Z,4.10
2017-10-25T22:44:07.871Z,4.90
2017-10-25T22:46:35.700Z,4.93
2017-10-25T22:49:03.562Z,6.00
2017-10-25T22:51:31.387Z,4.53
2017-10-25T22:54:08.016Z,4.93
2017-10-25T22:56:35.841Z,4.30
2017-10-25T22:59:03.679Z,3.60
2017-10-25T23:01:31.522Z,4.93
2017-10-25T23:04:11.474Z,4.77
2017-10-25T23:06:39.288Z,4.27
2017-10-25T23:09:07.129Z,7.10
2017-10-25T23:11:34.966Z,4.27
2017-10-25T23:17:07.798Z,6.10
2017-10-25T23:19:35.646Z,4.00
2017-10-25T23:22:03.530Z,5.87
2017-10-25T23:27:36.327Z,3.83
2017-10-25T23:30:04.316Z,4.67
2017-10-25T23:32:32.347Z,5.27
2017-10-25T23:35:00.201Z,4.73
2017-10-25T23:37:28.020Z,4.63
2017-10-25T23:39:55.864Z,5.70
2017-10-25T23:42:23.709Z,4.77
2017-10-25T23:44:53.312Z,5.03
2017-10-25T23:47:21.455Z,4.93
2017-10-25T23:49:49.394Z,6.30
2017-10-25T23:52:17.486Z,4.60
2017-10-25T23:54:45.745Z,5.70
2017-10-25T23:57:13.687Z,8.83
2017-10-25T23:59:41.570Z,5.87
